sensor_id;sensor_type;location;lat;lon;timestamp;P1;durP1;ratioP1;P2;durP2;ratioP2
84820;SDS011;75463;50.988;11.332;2024-01-15T00:01:13;13.05;;;6.97;;
84820;SDS011;75463;50.988;11.332;2024-01-15T00:03:38;13.23;;;7.20;;
84820;SDS011;75463;50.988;11.332;2024-01-15T00:06:04;14.35;;;8.27;;
84820;SDS011;75463;50.988;11.332;2024-01-15T00:08:29;14.43;;;6.40;;
84820;SDS011;75463;50.988;11.332;2024-01-15T00:10:54;10.00;;;7.07;;
84820;SDS011;75463;50.988;11.332;2024-01-15T00:13:20;13.57;;;7.40;;
84820;SDS011;75463;50.988;11.332;2024-01-15T00:15:45;10.50;;;6.45;;
84820;SDS011;75463;50.988;11.332;2024-01-15T00:18:10;13.27;;;8.05;;
84820;SDS011;75463;50.988;11.332;2024-01-15T00:20:36;12.35;;;7.03;;
84820;SDS011;75463;50.988;11.332;2024-01-15T00:23:01;14.18;;;8.45;;
84820;SDS011;75463;50.988;11.332;2024-01-15T00:25:26;13.95;;;8.15;;
84820;SDS011;75463;50.988;11.332;2024-01-15T00:27:52;12.15;;;7.07;;
84820;SDS011;75463;50.988;11.332;2024-01-15T00:30:17;16.50;;;8.23;;
84820;SDS011;75463;50.988;11.332;2024-01-15T00:32:42;16.03;;;7.80;;
84820;SDS011;75463;50.988;11.332;2024-01-15T00:35:08;14.50;;;8.10;;
84820;SDS011;75463;50.988;11.332;2024-01-15T00:37:33;14.50;;;7.20;;
84820;SDS011;75463;50.988;11.332;2024-01-15T00:39:58;14.37;;;8.10;;
84820;SDS011;75463;50.988;11.332;2024-01-15T00:42:24;11.60;;;7.00;;
84820;SDS011;75463;50.988;11.332;2024-01-15T00:44:49;12.57;;;6.80;;
84820;SDS011;75463;50.988;11.332;2024-01-15T00:47:14;13.93;;;8.70;;
84820;SDS011;75463;50.988;11.332;2024-01-15T00:49:39;13.43;;;7.03;;
84820;SDS011;75463;50.988;11.332;2024-01-15T00:52:05;16.38;;;6.60;;
84820;SDS011;75463;50.988;11.332;2024-01-15T00:54:30;11.43;;;6.90;;
84820;SDS011;75463;50.988;11.332;2024-01-15T00:56:56;14.75;;;7.55;;
84820;SDS011;75463;50.988;11.332;2024-01-15T00:59:21;13.80;;;7.25;;
84820;SDS011;75463;50.988;11.332;2024-01-15T01:01:46;12.10;;;7.88;;
84820;SDS011;75463;50.988;11.332;2024-01-15T01:04:12;11.60;;;6.75;;
84820;SDS011;75463;50.988;11.332;2024-01-15T01:06:38;10.35;;;6.53;;
84820;SDS011;75463;50.988;11.332;2024-01-15T01:09:03;12.38;;;7.32;;
84820;SDS011;75463;50.988;11.332;2024-01-15T01:11:29;14.85;;;7.05;;
84820;SDS011;75463;50.988;11.332;2024-01-15T01:13:54;9.98;;;5.82;;
84820;SDS011;75463;50.988;11.332;2024-01-15T01:16:21;11.75;;;6.50;;
84820;SDS011;75463;50.988;11.332;2024-01-15T01:18:46;14.10;;;6.40;;
84820;SDS011;75463;50.988;11.332;2024-01-15T01:21:12;11.57;;;6.55;;
84820;SDS011;75463;50.988;11.332;2024-01-15T01:23:37;10.88;;;6.43;;
84820;SDS011;75463;50.988;11.332;2024-01-15T01:26:02;9.53;;;5.83;;
84820;SDS011;75463;50.988;11.332;2024-01-15T01:28:28;13.65;;;6.85;;
84820;SDS011;75463;50.988;11.332;2024-01-15T01:30:53;10.70;;;6.07;;
84820;SDS011;75463;50.988;11.332;2024-01-15T01:33:18;12.53;;;6.73;;
84820;SDS011;75463;50.988;11.332;2024-01-15T01:35:44;12.60;;;6.88;;
84820;SDS011;75463;50.988;11.332;2024-01-15T01:38:10;10.70;;;4.60;;
84820;SDS011;75463;50.988;11.332;2024-01-15T01:40:35;13.68;;;6.25;;
84820;SDS011;75463;50.988;11.332;2024-01-15T01:43:02;12.50;;;5.63;;
84820;SDS011;75463;50.988;11.332;2024-01-15T01:45:28;10.63;;;5.55;;
84820;SDS011;75463;50.988;11.332;2024-01-15T01:47:53;12.65;;;6.38;;
84820;SDS011;75463;50.988;11.332;2024-01-15T01:50:19;11.60;;;6.75;;
84820;SDS011;75463;50.988;11.332;2024-01-15T01:52:44;11.80;;;6.03;;
84820;SDS011;75463;50.988;11.332;2024-01-15T01:55:10;15.02;;;6.15;;
84820;SDS011;75463;50.988;11.332;2024-01-15T01:57:37;13.27;;;6.82;;
84820;SDS011;75463;50.988;11.332;2024-01-15T02:00:03;11.75;;;6.45;;
84820;SDS011;75463;50.988;11.332;2024-01-15T02:02:30;10.55;;;6.15;;
84820;SDS011;75463;50.988;11.332;2024-01-15T02:04:57;13.05;;;7.07;;
84820;SDS011;75463;50.988;11.332;2024-01-15T02:07:22;10.20;;;6.43;;
84820;SDS011;75463;50.988;11.332;2024-01-15T02:09:48;14.30;;;7.25;;
84820;SDS011;75463;50.988;11.332;2024-01-15T02:12:14;11.25;;;5.97;;
84820;SDS011;75463;50.988;11.332;2024-01-15T02:14:40;12.38;;;6.65;;
84820;SDS011;75463;50.988;11.332;2024-01-15T02:17:05;10.50;;;6.25;;
84820;SDS011;75463;50.988;11.332;2024-01-15T02:19:31;14.27;;;8.57;;
84820;SDS011;75463;50.988;11.332;2024-01-15T02:21:56;9.43;;;4.80;;
84820;SDS011;75463;50.988;11.332;2024-01-15T02:24:21;11.80;;;6.27;;
84820;SDS011;75463;50.988;11.332;2024-01-15T02:26:47;11.85;;;7.38;;
84820;SDS011;75463;50.988;11.332;2024-01-15T02:29:13;13.45;;;6.38;;
84820;SDS011;75463;50.988;11.332;2024-01-15T02:31:39;10.98;;;6.82;;
84820;SDS011;75463;50.988;11.332;2024-01-15T02:34:05;12.77;;;6.85;;
84820;SDS011;75463;50.988;11.332;2024-01-15T02:36:30;9.80;;;5.50;;
84820;SDS011;75463;50.988;11.332;2024-01-15T02:38:55;9.65;;;6.10;;
84820;SDS011;75463;50.988;11.332;2024-01-15T02:41:21;10.10;;;5.90;;
84820;SDS011;75463;50.988;11.332;2024-01-15T02:43:46;12.50;;;6.32;;
84820;SDS011;75463;50.988;11.332;2024-01-15T02:46:11;11.85;;;6.40;;
84820;SDS011;75463;50.988;11.332;2024-01-15T02:48:37;11.35;;;6.20;;
84820;SDS011;75463;50.988;11.332;2024-01-15T02:51:02;7.57;;;5.43;;
84820;SDS011;75463;50.988;11.332;2024-01-15T02:53:28;10.77;;;5.65;;
84820;SDS011;75463;50.988;11.332;2024-01-15T02:55:53;13.93;;;6.30;;
84820;SDS011;75463;50.988;11.332;2024-01-15T02:58:18;8.85;;;5.00;;
84820;SDS011;75463;50.988;11.332;2024-01-15T03:00:44;9.93;;;6.18;;
84820;SDS011;75463;50.988;11.332;2024-01-15T03:03:09;9.27;;;6.13;;
84820;SDS011;75463;50.988;11.332;2024-01-15T03:05:35;11.48;;;6.35;;
84820;SDS011;75463;50.988;11.332;2024-01-15T03:08:00;9.93;;;6.05;;
84820;SDS011;75463;50.988;11.332;2024-01-15T03:10:25;9.83;;;5.93;;
84820;SDS011;75463;50.988;11.332;2024-01-15T03:12:51;13.60;;;7.32;;
84820;SDS011;75463;50.988;11.332;2024-01-15T03:15:16;9.43;;;5.13;;
84820;SDS011;75463;50.988;11.332;2024-01-15T03:17:41;12.57;;;5.60;;
84820;SDS011;75463;50.988;11.332;2024-01-15T03:20:08;9.50;;;5.30;;
84820;SDS011;75463;50.988;11.332;2024-01-15T03:22:33;10.30;;;6.10;;
84820;SDS011;75463;50.988;11.332;2024-01-15T03:24:59;12.02;;;6.13;;
84820;SDS011;75463;50.988;11.332;2024-01-15T03:27:24;13.93;;;6.45;;
84820;SDS011;75463;50.988;11.332;2024-01-15T03:29:50;11.55;;;6.45;;
84820;SDS011;75463;50.988;11.332;2024-01-15T03:32:16;10.18;;;5.10;;
84820;SDS011;75463;50.988;11.332;2024-01-15T03:34:41;10.13;;;5.03;;
84820;SDS011;75463;50.988;11.332;2024-01-15T03:37:06;9.48;;;4.90;;
84820;SDS011;75463;50.988;11.332;2024-01-15T03:39:32;8.93;;;5.80;;
84820;SDS011;75463;50.988;11.332;2024-01-15T03:41:57;7.93;;;4.63;;
84820;SDS011;75463;50.988;11.332;2024-01-15T03:44:23;9.63;;;5.15;;
84820;SDS011;75463;50.988;11.332;2024-01-15T03:46:48;11.30;;;6.25;;
84820;SDS011;75463;50.988;11.332;2024-01-15T03:49:13;8.57;;;5.85;;
84820;SDS011;75463;50.988;11.332;2024-01-15T03:51:39;10.18;;;5.32;;
84820;SDS011;75463;50.988;11.332;2024-01-15T03:54:04;8.38;;;5.20;;
84820;SDS011;75463;50.988;11.332;2024-01-15T03:56:29;11.40;;;6.40;;
84820;SDS011;75463;50.988;11.332;2024-01-15T03:58:55;9.13;;;6.45;;
84820;SDS011;75463;50.988;11.332;2024-01-15T04:01:20;11.60;;;5.88;;
84820;SDS011;75463;50.988;11.332;2024-01-15T04:03:45;8.30;;;5.45;;
84820;SDS011;75463;50.988;11.332;2024-01-15T04:06:11;7.90;;;4.85;;
84820;SDS011;75463;50.988;11.332;2024-01-15T04:08:36;7.50;;;4.90;;
84820;SDS011;75463;50.988;11.332;2024-01-15T04:11:01;6.63;;;5.68;;
84820;SDS011;75463;50.988;11.332;2024-01-15T04:13:27;8.90;;;5.38;;
84820;SDS011;75463;50.988;11.332;2024-01-15T04:15:52;10.32;;;6.13;;
84820;SDS011;75463;50.988;11.332;2024-01-15T04:18:17;10.70;;;5.68;;
84820;SDS011;75463;50.988;11.332;2024-01-15T04:20:43;10.30;;;5.50;;
84820;SDS011;75463;50.988;11.332;2024-01-15T04:23:08;7.85;;;5.00;;
84820;SDS011;75463;50.988;11.332;2024-01-15T04:25:33;7.75;;;5.72;;
84820;SDS011;75463;50.988;11.332;2024-01-15T04:27:59;7.45;;;5.10;;
84820;SDS011;75463;50.988;11.332;2024-01-15T04:30:24;10.10;;;6.20;;
84820;SDS011;75463;50.988;11.332;2024-01-15T04:32:49;9.85;;;5.85;;
84820;SDS011;75463;50.988;11.332;2024-01-15T04:35:15;9.80;;;5.38;;
84820;SDS011;75463;50.988;11.332;2024-01-15T04:37:40;9.65;;;5.35;;
84820;SDS011;75463;50.988;11.332;2024-01-15T04:40:06;9.53;;;5.53;;
84820;SDS011;75463;50.988;11.332;2024-01-15T04:42:31;9.05;;;5.47;;
84820;SDS011;75463;50.988;11.332;2024-01-15T04:44:57;10.48;;;5.68;;
84820;SDS011;75463;50.988;11.332;2024-01-15T04:47:22;11.10;;;5.65;;
84820;SDS011;75463;50.988;11.332;2024-01-15T04:49:48;8.02;;;5.55;;
84820;SDS011;75463;50.988;11.332;2024-01-15T04:52:14;9.30;;;5.78;;
84820;SDS011;75463;50.988;11.332;2024-01-15T04:54:39;10.73;;;6.05;;
84820;SDS011;75463;50.988;11.332;2024-01-15T04:57:04;7.43;;;4.67;;
84820;SDS011;75463;50.988;11.332;2024-01-15T04:59:30;12.93;;;5.65;;
84820;SDS011;75463;50.988;11.332;2024-01-15T05:01:55;11.00;;;6.28;;
84820;SDS011;75463;50.988;11.332;2024-01-15T05:04:20;13.15;;;5.82;;
84820;SDS011;75463;50.988;11.332;2024-01-15T05:06:46;9.23;;;6.07;;
84820;SDS011;75463;50.988;11.332;2024-01-15T05:09:11;9.85;;;6.45;;
84820;SDS011;75463;50.988;11.332;2024-01-15T05:11:38;7.82;;;4.72;;
84820;SDS011;75463;50.988;11.332;2024-01-15T05:14:04;10.02;;;5.75;;
84820;SDS011;75463;50.988;11.332;2024-01-15T05:16:29;9.73;;;5.88;;
84820;SDS011;75463;50.988;11.332;2024-01-15T05:18:54;7.38;;;5.50;;
84820;SDS011;75463;50.988;11.332;2024-01-15T05:21:19;8.73;;;5.93;;
84820;SDS011;75463;50.988;11.332;2024-01-15T05:23:45;8.18;;;6.15;;
84820;SDS011;75463;50.988;11.332;2024-01-15T05:26:10;7.22;;;5.20;;
84820;SDS011;75463;50.988;11.332;2024-01-15T05:28:35;8.98;;;5.10;;
84820;SDS011;75463;50.988;11.332;2024-01-15T05:31:01;8.60;;;5.07;;
84820;SDS011;75463;50.988;11.332;2024-01-15T05:33:26;7.45;;;4.82;;
84820;SDS011;75463;50.988;11.332;2024-01-15T05:35:52;9.70;;;5.47;;
84820;SDS011;75463;50.988;11.332;2024-01-15T05:38:18;11.57;;;5.28;;
84820;SDS011;75463;50.988;11.332;2024-01-15T05:40:43;6.07;;;4.82;;
84820;SDS011;75463;50.988;11.332;2024-01-15T05:43:09;9.57;;;6.18;;
84820;SDS011;75463;50.988;11.332;2024-01-15T05:45:34;9.27;;;4.87;;
84820;SDS011;75463;50.988;11.332;2024-01-15T05:48:00;9.20;;;5.95;;
84820;SDS011;75463;50.988;11.332;2024-01-15T05:50:26;10.10;;;4.70;;
84820;SDS011;75463;50.988;11.332;2024-01-15T05:52:51;6.93;;;4.43;;
84820;SDS011;75463;50.988;11.332;2024-01-15T05:55:17;6.90;;;4.03;;
84820;SDS011;75463;50.988;11.332;2024-01-15T05:57:43;7.57;;;3.88;;
84820;SDS011;75463;50.988;11.332;2024-01-15T06:00:09;8.20;;;4.88;;
84820;SDS011;75463;50.988;11.332;2024-01-15T06:02:35;9.57;;;5.20;;
84820;SDS011;75463;50.988;11.332;2024-01-15T06:05:01;8.10;;;5.00;;
84820;SDS011;75463;50.988;11.332;2024-01-15T06:07:27;7.22;;;5.35;;
84820;SDS011;75463;50.988;11.332;2024-01-15T06:09:53;8.07;;;4.93;;
84820;SDS011;75463;50.988;11.332;2024-01-15T06:12:18;6.80;;;5.30;;
84820;SDS011;75463;50.988;11.332;2024-01-15T06:14:43;7.93;;;5.72;;
84820;SDS011;75463;50.988;11.332;2024-01-15T06:17:09;6.82;;;5.40;;
84820;SDS011;75463;50.988;11.332;2024-01-15T06:19:34;7.35;;;4.80;;
84820;SDS011;75463;50.988;11.332;2024-01-15T06:22:00;10.60;;;5.35;;
84820;SDS011;75463;50.988;11.332;2024-01-15T06:24:25;6.75;;;4.28;;
84820;SDS011;75463;50.988;11.332;2024-01-15T06:26:50;6.93;;;4.13;;
84820;SDS011;75463;50.988;11.332;2024-01-15T06:29:15;9.85;;;6.60;;
84820;SDS011;75463;50.988;11.332;2024-01-15T06:31:41;9.23;;;5.15;;
84820;SDS011;75463;50.988;11.332;2024-01-15T06:34:06;10.20;;;5.43;;
84820;SDS011;75463;50.988;11.332;2024-01-15T06:36:32;8.93;;;4.60;;
84820;SDS011;75463;50.988;11.332;2024-01-15T06:38:57;11.45;;;4.55;;
84820;SDS011;75463;50.988;11.332;2024-01-15T06:41:22;7.87;;;5.50;;
84820;SDS011;75463;50.988;11.332;2024-01-15T06:43:48;10.35;;;4.65;;
84820;SDS011;75463;50.988;11.332;2024-01-15T06:46:19;8.02;;;4.30;;
84820;SDS011;75463;50.988;11.332;2024-01-15T06:48:46;5.82;;;4.53;;
84820;SDS011;75463;50.988;11.332;2024-01-15T06:51:11;7.87;;;5.13;;
84820;SDS011;75463;50.988;11.332;2024-01-15T06:53:36;7.65;;;4.63;;
84820;SDS011;75463;50.988;11.332;2024-01-15T06:56:01;8.00;;;4.50;;
84820;SDS011;75463;50.988;11.332;2024-01-15T06:58:27;9.35;;;4.47;;
84820;SDS011;75463;50.988;11.332;2024-01-15T07:00:52;10.23;;;4.72;;
84820;SDS011;75463;50.988;11.332;2024-01-15T07:03:17;15.98;;;4.93;;
84820;SDS011;75463;50.988;11.332;2024-01-15T07:05:43;9.60;;;5.23;;
84820;SDS011;75463;50.988;11.332;2024-01-15T07:08:08;11.80;;;4.93;;
84820;SDS011;75463;50.988;11.332;2024-01-15T07:10:33;10.40;;;5.40;;
84820;SDS011;75463;50.988;11.332;2024-01-15T07:12:58;8.60;;;4.45;;
84820;SDS011;75463;50.988;11.332;2024-01-15T07:15:24;7.80;;;4.75;;
84820;SDS011;75463;50.988;11.332;2024-01-15T07:17:49;7.50;;;4.43;;
84820;SDS011;75463;50.988;11.332;2024-01-15T07:20:14;7.60;;;4.20;;
84820;SDS011;75463;50.988;11.332;2024-01-15T07:22:40;7.22;;;4.32;;
84820;SDS011;75463;50.988;11.332;2024-01-15T07:25:06;6.53;;;4.55;;
84820;SDS011;75463;50.988;11.332;2024-01-15T07:27:31;6.32;;;4.20;;
84820;SDS011;75463;50.988;11.332;2024-01-15T07:29:57;5.53;;;3.80;;
84820;SDS011;75463;50.988;11.332;2024-01-15T07:32:23;7.57;;;4.10;;
84820;SDS011;75463;50.988;11.332;2024-01-15T07:34:48;6.95;;;4.60;;
84820;SDS011;75463;50.988;11.332;2024-01-15T07:37:14;6.80;;;3.92;;
84820;SDS011;75463;50.988;11.332;2024-01-15T07:39:39;7.13;;;3.63;;
84820;SDS011;75463;50.988;11.332;2024-01-15T07:42:05;7.32;;;3.88;;
84820;SDS011;75463;50.988;11.332;2024-01-15T07:44:30;7.97;;;4.55;;
84820;SDS011;75463;50.988;11.332;2024-01-15T07:46:56;7.63;;;4.35;;
84820;SDS011;75463;50.988;11.332;2024-01-15T07:49:21;9.43;;;4.65;;
84820;SDS011;75463;50.988;11.332;2024-01-15T07:51:48;7.97;;;4.13;;
84820;SDS011;75463;50.988;11.332;2024-01-15T07:54:13;6.97;;;4.30;;
84820;SDS011;75463;50.988;11.332;2024-01-15T07:56:55;8.30;;;3.88;;
84820;SDS011;75463;50.988;11.332;2024-01-15T07:59:24;6.25;;;4.15;;
84820;SDS011;75463;50.988;11.332;2024-01-15T08:01:50;10.93;;;5.22;;
84820;SDS011;75463;50.988;11.332;2024-01-15T08:04:15;9.02;;;4.20;;
84820;SDS011;75463;50.988;11.332;2024-01-15T08:06:40;7.55;;;4.10;;
84820;SDS011;75463;50.988;11.332;2024-01-15T08:09:08;7.70;;;3.85;;
84820;SDS011;75463;50.988;11.332;2024-01-15T08:11:34;7.82;;;4.25;;
84820;SDS011;75463;50.988;11.332;2024-01-15T08:14:00;9.95;;;5.45;;
84820;SDS011;75463;50.988;11.332;2024-01-15T08:16:26;6.53;;;4.53;;
84820;SDS011;75463;50.988;11.332;2024-01-15T08:18:52;10.52;;;5.38;;
84820;SDS011;75463;50.988;11.332;2024-01-15T08:21:18;8.40;;;4.32;;
84820;SDS011;75463;50.988;11.332;2024-01-15T08:23:43;9.18;;;5.22;;
84820;SDS011;75463;50.988;11.332;2024-01-15T08:26:09;7.47;;;4.53;;
84820;SDS011;75463;50.988;11.332;2024-01-15T08:28:35;10.55;;;4.60;;
84820;SDS011;75463;50.988;11.332;2024-01-15T08:31:00;9.32;;;4.30;;
84820;SDS011;75463;50.988;11.332;2024-01-15T08:33:26;12.10;;;4.40;;
84820;SDS011;75463;50.988;11.332;2024-01-15T08:35:51;7.67;;;3.77;;
84820;SDS011;75463;50.988;11.332;2024-01-15T08:38:17;5.68;;;3.47;;
84820;SDS011;75463;50.988;11.332;2024-01-15T08:40:44;6.65;;;3.75;;
84820;SDS011;75463;50.988;11.332;2024-01-15T08:43:09;8.80;;;4.38;;
84820;SDS011;75463;50.988;11.332;2024-01-15T08:45:34;8.23;;;3.90;;
84820;SDS011;75463;50.988;11.332;2024-01-15T08:48:00;5.53;;;3.83;;
84820;SDS011;75463;50.988;11.332;2024-01-15T08:50:26;5.65;;;3.72;;
84820;SDS011;75463;50.988;11.332;2024-01-15T08:52:51;4.85;;;3.20;;
84820;SDS011;75463;50.988;11.332;2024-01-15T08:55:17;7.50;;;3.90;;
84820;SDS011;75463;50.988;11.332;2024-01-15T08:57:42;7.05;;;3.95;;
84820;SDS011;75463;50.988;11.332;2024-01-15T09:00:08;8.38;;;4.15;;
84820;SDS011;75463;50.988;11.332;2024-01-15T09:02:34;5.50;;;2.85;;
84820;SDS011;75463;50.988;11.332;2024-01-15T09:05:00;5.78;;;3.80;;
84820;SDS011;75463;50.988;11.332;2024-01-15T09:07:26;6.82;;;3.88;;
84820;SDS011;75463;50.988;11.332;2024-01-15T09:09:52;13.95;;;4.97;;
84820;SDS011;75463;50.988;11.332;2024-01-15T09:12:17;6.63;;;3.25;;
84820;SDS011;75463;50.988;11.332;2024-01-15T09:14:43;9.40;;;3.50;;
84820;SDS011;75463;50.988;11.332;2024-01-15T09:17:09;8.50;;;4.15;;
84820;SDS011;75463;50.988;11.332;2024-01-15T09:19:34;6.10;;;4.32;;
84820;SDS011;75463;50.988;11.332;2024-01-15T09:22:00;7.07;;;3.93;;
84820;SDS011;75463;50.988;11.332;2024-01-15T09:24:25;8.75;;;4.25;;
84820;SDS011;75463;50.988;11.332;2024-01-15T09:26:50;10.32;;;3.50;;
84820;SDS011;75463;50.988;11.332;2024-01-15T09:29:16;5.72;;;3.45;;
84820;SDS011;75463;50.988;11.332;2024-01-15T09:31:41;6.45;;;3.85;;
84820;SDS011;75463;50.988;11.332;2024-01-15T09:34:07;6.70;;;3.73;;
84820;SDS011;75463;50.988;11.332;2024-01-15T09:36:32;7.83;;;4.17;;
84820;SDS011;75463;50.988;11.332;2024-01-15T09:38:57;5.97;;;3.93;;
84820;SDS011;75463;50.988;11.332;2024-01-15T09:41:23;8.90;;;3.93;;
84820;SDS011;75463;50.988;11.332;2024-01-15T09:43:48;6.68;;;3.28;;
84820;SDS011;75463;50.988;11.332;2024-01-15T09:46:14;7.75;;;3.38;;
84820;SDS011;75463;50.988;11.332;2024-01-15T09:48:41;6.80;;;3.45;;
84820;SDS011;75463;50.988;11.332;2024-01-15T09:51:07;7.10;;;4.05;;
84820;SDS011;75463;50.988;11.332;2024-01-15T09:53:33;8.50;;;3.60;;
84820;SDS011;75463;50.988;11.332;2024-01-15T09:56:00;6.72;;;3.90;;
84820;SDS011;75463;50.988;11.332;2024-01-15T09:58:26;6.30;;;3.97;;
84820;SDS011;75463;50.988;11.332;2024-01-15T10:00:52;8.77;;;4.30;;
84820;SDS011;75463;50.988;11.332;2024-01-15T10:03:18;6.80;;;4.10;;
84820;SDS011;75463;50.988;11.332;2024-01-15T10:05:43;7.33;;;3.70;;
84820;SDS011;75463;50.988;11.332;2024-01-15T10:08:08;4.63;;;3.35;;
84820;SDS011;75463;50.988;11.332;2024-01-15T10:10:36;5.82;;;3.55;;
84820;SDS011;75463;50.988;11.332;2024-01-15T10:13:02;7.07;;;4.35;;
84820;SDS011;75463;50.988;11.332;2024-01-15T10:15:29;5.40;;;3.58;;
84820;SDS011;75463;50.988;11.332;2024-01-15T10:17:59;6.93;;;4.07;;
84820;SDS011;75463;50.988;11.332;2024-01-15T10:20:24;6.35;;;3.28;;
84820;SDS011;75463;50.988;11.332;2024-01-15T10:22:49;6.47;;;4.10;;
84820;SDS011;75463;50.988;11.332;2024-01-15T10:25:15;9.07;;;5.50;;
84820;SDS011;75463;50.988;11.332;2024-01-15T10:27:41;9.40;;;5.38;;
84820;SDS011;75463;50.988;11.332;2024-01-15T10:30:07;7.47;;;4.43;;
84820;SDS011;75463;50.988;11.332;2024-01-15T10:32:36;9.90;;;4.90;;
84820;SDS011;75463;50.988;11.332;2024-01-15T10:35:02;4.80;;;3.72;;
84820;SDS011;75463;50.988;11.332;2024-01-15T10:37:32;6.57;;;3.85;;
84820;SDS011;75463;50.988;11.332;2024-01-15T10:39:58;11.57;;;4.78;;
84820;SDS011;75463;50.988;11.332;2024-01-15T10:42:23;8.15;;;4.82;;
84820;SDS011;75463;50.988;11.332;2024-01-15T10:44:48;7.40;;;4.25;;
84820;SDS011;75463;50.988;11.332;2024-01-15T10:47:14;7.07;;;3.47;;
84820;SDS011;75463;50.988;11.332;2024-01-15T10:49:40;7.93;;;3.95;;
84820;SDS011;75463;50.988;11.332;2024-01-15T10:52:06;8.25;;;4.43;;
84820;SDS011;75463;50.988;11.332;2024-01-15T10:54:31;8.90;;;4.45;;
84820;SDS011;75463;50.988;11.332;2024-01-15T10:56:57;9.63;;;4.32;;
84820;SDS011;75463;50.988;11.332;2024-01-15T10:59:23;10.85;;;4.13;;
84820;SDS011;75463;50.988;11.332;2024-01-15T11:01:49;6.65;;;4.13;;
84820;SDS011;75463;50.988;11.332;2024-01-15T11:04:18;9.68;;;3.90;;
84820;SDS011;75463;50.988;11.332;2024-01-15T11:06:45;13.52;;;4.60;;
84820;SDS011;75463;50.988;11.332;2024-01-15T11:11:40;8.90;;;4.57;;
84820;SDS011;75463;50.988;11.332;2024-01-15T11:14:08;7.15;;;4.32;;
84820;SDS011;75463;50.988;11.332;2024-01-15T11:19:21;7.57;;;4.43;;
84820;SDS011;75463;50.988;11.332;2024-01-15T11:21:46;9.40;;;3.83;;
84820;SDS011;75463;50.988;11.332;2024-01-15T11:24:11;5.97;;;3.87;;
84820;SDS011;75463;50.988;11.332;2024-01-15T11:27:04;7.13;;;4.13;;
84820;SDS011;75463;50.988;11.332;2024-01-15T11:29:31;6.18;;;3.13;;
84820;SDS011;75463;50.988;11.332;2024-01-15T11:32:03;6.03;;;2.88;;
84820;SDS011;75463;50.988;11.332;2024-01-15T11:37:17;7.45;;;4.00;;
84820;SDS011;75463;50.988;11.332;2024-01-15T11:39:43;4.72;;;3.13;;
84820;SDS011;75463;50.988;11.332;2024-01-15T11:42:10;7.93;;;2.75;;
84820;SDS011;75463;50.988;11.332;2024-01-15T11:44:37;6.47;;;2.80;;
84820;SDS011;75463;50.988;11.332;2024-01-15T11:47:04;6.43;;;3.72;;
84820;SDS011;75463;50.988;11.332;2024-01-15T11:52:39;6.07;;;3.22;;
84820;SDS011;75463;50.988;11.332;2024-01-15T11:55:19;6.55;;;3.50;;
84820;SDS011;75463;50.988;11.332;2024-01-15T11:57:51;8.75;;;3.40;;
84820;SDS011;75463;50.988;11.332;2024-01-15T12:00:19;7.35;;;3.10;;
84820;SDS011;75463;50.988;11.332;2024-01-15T12:02:46;7.13;;;3.50;;
84820;SDS011;75463;50.988;11.332;2024-01-15T12:05:13;5.47;;;3.47;;
84820;SDS011;75463;50.988;11.332;2024-01-15T12:07:40;5.00;;;3.38;;
84820;SDS011;75463;50.988;11.332;2024-01-15T12:10:10;3.95;;;2.85;;
84820;SDS011;75463;50.988;11.332;2024-01-15T12:15:09;6.35;;;3.17;;
84820;SDS011;75463;50.988;11.332;2024-01-15T12:17:34;5.55;;;2.45;;
84820;SDS011;75463;50.988;11.332;2024-01-15T12:20:01;4.45;;;3.72;;
84820;SDS011;75463;50.988;11.332;2024-01-15T12:22:30;6.43;;;3.20;;
84820;SDS011;75463;50.988;11.332;2024-01-15T12:24:55;4.90;;;3.22;;
84820;SDS011;75463;50.988;11.332;2024-01-15T12:27:20;4.90;;;2.72;;
84820;SDS011;75463;50.988;11.332;2024-01-15T12:29:46;6.38;;;3.97;;
84820;SDS011;75463;50.988;11.332;2024-01-15T12:32:12;4.57;;;3.33;;
84820;SDS011;75463;50.988;11.332;2024-01-15T12:34:37;3.75;;;2.92;;
84820;SDS011;75463;50.988;11.332;2024-01-15T12:37:03;5.85;;;3.13;;
84820;SDS011;75463;50.988;11.332;2024-01-15T12:39:28;5.20;;;3.67;;
84820;SDS011;75463;50.988;11.332;2024-01-15T12:41:54;4.22;;;3.28;;
84820;SDS011;75463;50.988;11.332;2024-01-15T12:44:19;5.00;;;3.28;;
84820;SDS011;75463;50.988;11.332;2024-01-15T12:46:45;3.88;;;2.95;;
84820;SDS011;75463;50.988;11.332;2024-01-15T12:49:10;4.57;;;3.03;;
84820;SDS011;75463;50.988;11.332;2024-01-15T12:51:37;4.95;;;3.08;;
84820;SDS011;75463;50.988;11.332;2024-01-15T12:54:03;6.22;;;3.47;;
84820;SDS011;75463;50.988;11.332;2024-01-15T12:56:29;4.95;;;3.35;;
84820;SDS011;75463;50.988;11.332;2024-01-15T12:58:54;7.45;;;3.92;;
84820;SDS011;75463;50.988;11.332;2024-01-15T13:01:19;9.63;;;3.67;;
84820;SDS011;75463;50.988;11.332;2024-01-15T13:03:45;6.47;;;3.63;;
84820;SDS011;75463;50.988;11.332;2024-01-15T13:06:10;4.97;;;3.17;;
84820;SDS011;75463;50.988;11.332;2024-01-15T13:08:35;5.35;;;3.63;;
84820;SDS011;75463;50.988;11.332;2024-01-15T13:11:01;5.00;;;3.50;;
84820;SDS011;75463;50.988;11.332;2024-01-15T13:13:26;7.82;;;4.20;;
84820;SDS011;75463;50.988;11.332;2024-01-15T13:15:52;5.97;;;4.10;;
84820;SDS011;75463;50.988;11.332;2024-01-15T13:18:17;6.85;;;3.95;;
84820;SDS011;75463;50.988;11.332;2024-01-15T13:20:43;8.07;;;4.03;;
84820;SDS011;75463;50.988;11.332;2024-01-15T13:23:09;7.38;;;3.70;;
84820;SDS011;75463;50.988;11.332;2024-01-15T13:25:35;6.80;;;4.10;;
84820;SDS011;75463;50.988;11.332;2024-01-15T13:28:03;5.13;;;3.80;;
84820;SDS011;75463;50.988;11.332;2024-01-15T13:30:29;5.25;;;3.58;;
84820;SDS011;75463;50.988;11.332;2024-01-15T13:32:55;7.55;;;3.97;;
84820;SDS011;75463;50.988;11.332;2024-01-15T13:35:21;8.88;;;4.70;;
84820;SDS011;75463;50.988;11.332;2024-01-15T13:37:47;8.43;;;4.07;;
84820;SDS011;75463;50.988;11.332;2024-01-15T13:40:12;5.68;;;3.60;;
84820;SDS011;75463;50.988;11.332;2024-01-15T13:42:41;7.53;;;4.38;;
84820;SDS011;75463;50.988;11.332;2024-01-15T13:45:07;7.15;;;4.75;;
84820;SDS011;75463;50.988;11.332;2024-01-15T13:47:32;6.85;;;4.70;;
84820;SDS011;75463;50.988;11.332;2024-01-15T13:49:58;7.43;;;4.50;;
84820;SDS011;75463;50.988;11.332;2024-01-15T13:52:24;7.43;;;3.60;;
84820;SDS011;75463;50.988;11.332;2024-01-15T13:54:49;6.40;;;4.57;;
84820;SDS011;75463;50.988;11.332;2024-01-15T13:57:14;6.88;;;4.55;;
84820;SDS011;75463;50.988;11.332;2024-01-15T13:59:40;8.07;;;4.13;;
84820;SDS011;75463;50.988;11.332;2024-01-15T14:02:05;5.65;;;3.90;;
84820;SDS011;75463;50.988;11.332;2024-01-15T14:04:31;4.88;;;3.30;;
84820;SDS011;75463;50.988;11.332;2024-01-15T14:06:56;7.33;;;4.53;;
84820;SDS011;75463;50.988;11.332;2024-01-15T14:09:21;10.73;;;4.07;;
84820;SDS011;75463;50.988;11.332;2024-01-15T14:11:47;10.35;;;5.07;;
84820;SDS011;75463;50.988;11.332;2024-01-15T14:14:12;6.70;;;4.47;;
84820;SDS011;75463;50.988;11.332;2024-01-15T14:16:39;7.00;;;4.25;;
84820;SDS011;75463;50.988;11.332;2024-01-15T14:19:04;8.65;;;3.95;;
84820;SDS011;75463;50.988;11.332;2024-01-15T14:21:31;6.85;;;4.90;;
84820;SDS011;75463;50.988;11.332;2024-01-15T14:23:56;6.15;;;3.97;;
84820;SDS011;75463;50.988;11.332;2024-01-15T14:26:22;7.05;;;4.03;;
84820;SDS011;75463;50.988;11.332;2024-01-15T14:28:47;8.32;;;4.18;;
84820;SDS011;75463;50.988;11.332;2024-01-15T14:31:13;6.05;;;3.28;;
84820;SDS011;75463;50.988;11.332;2024-01-15T14:33:38;6.75;;;4.07;;
84820;SDS011;75463;50.988;11.332;2024-01-15T14:36:04;7.38;;;3.95;;